Time;durP1;ratioP1;P1;durP2;ratioP2;P2;SDS_P1;SDS_P2;PMS_P1;PMS_P2;Temp;Humidity;BMP_temperature;BMP_pressure;BME280_temperature;BME280_humidity;BME280_pressure;Samples;Min_cycle;Max_cycle;Signal;HPM_P1;HPM_P2
2020/12/20 00:00:51;;;;;;;35.07;18.17;;;;;;;4.46;95.01;101212.17;1667345;84;21327;-83
2020/12/20 00:03:19;;;;;;;35.97;18.20;;;;;;;4.43;95.38;101212.09;1680416;83;21122;-85
2020/12/20 00:05:48;;;;;;;39.77;19.00;;;;;;;4.44;95.52;101209.97;1690309;82;21115;-81
2020/12/20 00:08:17;;;;;;;37.40;19.13;;;;;;;4.43;95.51;101208.25;1708225;83;21587;-82
2020/12/20 00:10:46;;;;;;;35.73;17.98;;;;;;;4.42;95.57;101211.23;1678680;82;21120;-82
2020/12/20 00:13:17;;;;;;;35.17;17.87;;;;;;;4.44;95.72;101217.66;1671712;83;21256;-82
2020/12/20 00:15:45;;;;;;;33.83;17.45;;;;;;;4.41;95.79;101223.59;1680993;84;21137;-81
2020/12/20 00:18:13;;;;;;;29.33;16.43;;;;;;;4.43;95.89;101223.62;1645740;85;21543;-82
2020/12/20 00:20:45;;;;;;;37.30;18.40;;;;;;;4.46;95.65;101226.27;1629421;86;21403;-81
2020/12/20 00:23:14;;;;;;;32.30;18.17;;;;;;;4.44;95.60;101229.19;1652955;84;21178;-84
2020/12/20 00:25:42;;;;;;;37.87;18.77;;;;;;;4.45;95.75;101228.39;1616455;86;21142;-81
2020/12/20 00:28:11;;;;;;;36.40;18.50;;;;;;;4.43;95.64;101224.48;1667518;84;21144;-82
2020/12/20 00:30:43;;;;;;;35.43;18.07;;;;;;;4.41;95.84;101221.03;1643136;82;21112;-84
2020/12/20 00:33:14;;;;;;;32.83;17.93;;;;;;;4.43;95.99;101223.20;1662187;84;21133;-83
2020/12/20 00:35:43;;;;;;;34.93;18.27;;;;;;;4.44;95.68;101217.23;1653642;86;21296;-83
2020/12/20 00:38:11;;;;;;;32.93;17.53;;;;;;;4.42;95.87;101221.89;1650102;86;21248;-81
2020/12/20 00:40:39;;;;;;;35.03;18.77;;;;;;;4.40;95.71;101220.55;1666637;85;21136;-82
2020/12/20 00:43:07;;;;;;;34.40;17.10;;;;;;;4.34;95.40;101219.50;1636191;84;21139;-82
2020/12/20 00:45:36;;;;;;;37.80;18.23;;;;;;;4.28;95.85;101214.19;1650305;85;21172;-82
2020/12/20 00:48:06;;;;;;;33.27;17.17;;;;;;;4.23;96.16;101222.62;1671996;84;21307;-82
2020/12/20 00:50:34;;;;;;;36.03;19.57;;;;;;;4.24;96.30;101218.36;1686701;80;21140;-82
2020/12/20 00:53:04;;;;;;;35.65;17.60;;;;;;;4.25;96.38;101219.22;1653074;80;21199;-83
2020/12/20 00:55:33;;;;;;;33.40;17.40;;;;;;;4.23;96.19;101217.91;1682968;84;21156;-83
2020/12/20 00:58:02;;;;;;;34.30;16.53;;;;;;;4.21;96.49;101214.01;1595145;85;21181;-80
2020/12/20 01:00:32;;;;;;;36.95;18.00;;;;;;;4.25;96.51;101212.81;1661370;85;21262;-82
2020/12/20 01:03:00;;;;;;;37.43;18.90;;;;;;;4.25;96.64;101213.72;1624676;85;21270;-82
2020/12/20 01:05:30;;;;;;;37.15;18.23;;;;;;;4.25;96.69;101221.78;1664085;81;21287;-82
2020/12/20 01:08:02;;;;;;;37.67;17.83;;;;;;;4.26;96.59;101218.42;1641420;86;21188;-81
2020/12/20 01:10:30;;;;;;;33.43;16.90;;;;;;;4.25;96.43;101220.12;1646142;86;21499;-81
2020/12/20 01:12:58;;;;;;;28.00;15.40;;;;;;;4.22;96.45;101217.05;1649368;85;21166;-81
2020/12/20 01:15:29;;;;;;;35.70;17.32;;;;;;;4.23;96.42;101223.89;1663253;81;21156;-82
2020/12/20 01:17:58;;;;;;;35.10;17.13;;;;;;;4.23;96.59;101217.49;1616539;87;21134;-81
2020/12/20 01:20:26;;;;;;;34.80;16.53;;;;;;;4.26;96.48;101220.56;1669356;86;21171;-80
2020/12/20 01:22:54;;;;;;;30.70;16.07;;;;;;;4.29;96.48;101222.36;1665008;84;21147;-82
2020/12/20 01:25:24;;;;;;;29.27;15.00;;;;;;;4.31;96.15;101222.83;1649450;84;21139;-83
2020/12/20 01:27:54;;;;;;;30.50;17.27;;;;;;;4.32;96.04;101222.45;1664794;82;21106;-81
2020/12/20 01:30:24;;;;;;;32.80;17.40;;;;;;;4.29;95.80;101218.52;1674509;83;21585;-81
2020/12/20 01:32:52;;;;;;;35.87;17.87;;;;;;;4.24;95.96;101215.80;1687008;83;21142;-82
2020/12/20 01:35:21;;;;;;;37.10;17.63;;;;;;;4.22;96.06;101224.73;1674952;84;21268;-84
2020/12/20 01:37:53;;;;;;;31.17;16.20;;;;;;;4.22;96.27;101219.61;1623699;82;21264;-83
2020/12/20 01:40:24;;;;;;;31.70;17.90;;;;;;;4.21;96.22;101224.67;1666067;83;21109;-83
2020/12/20 01:42:55;;;;;;;32.10;16.07;;;;;;;4.17;96.18;101227.55;1666194;82;21127;-83
2020/12/20 01:45:27;;;;;;;28.73;15.70;;;;;;;4.17;96.27;101223.71;1683676;82;21083;-84
2020/12/20 01:47:56;;;;;;;33.83;18.23;;;;;;;4.21;96.31;101229.38;1666828;85;21133;-82
2020/12/20 01:50:25;;;;;;;31.30;16.37;;;;;;;4.24;96.26;101223.48;1675870;84;21149;-82
2020/12/20 01:52:56;;;;;;;34.03;17.95;;;;;;;4.26;96.26;101220.98;1626322;83;21139;-82
2020/12/20 01:55:25;;;;;;;35.63;18.13;;;;;;;4.30;96.35;101222.80;1703437;80;21134;-83
2020/12/20 01:57:55;;;;;;;29.40;16.23;;;;;;;4.33;96.15;101225.45;1777314;78;21121;-83
2020/12/20 02:00:28;;;;;;;28.20;16.00;;;;;;;4.33;95.76;101228.88;1703600;81;21125;-82
2020/12/20 02:03:16;;;;;;;27.50;15.17;;;;;;;4.29;95.59;101228.77;1753448;79;21109;-83
2020/12/20 02:05:50;;;;;;;28.77;15.43;;;;;;;4.26;95.37;101227.39;1701883;83;21102;-83
2020/12/20 02:08:19;;;;;;;26.73;14.63;;;;;;;4.23;95.60;101229.02;1700179;81;21245;-83
2020/12/20 02:11:15;;;;;;;24.92;13.55;;;;;;;4.22;95.51;101228.58;1782610;79;21125;-84
2020/12/20 02:13:49;;;;;;;23.53;13.17;;;;;;;4.22;95.57;101227.71;1768650;78;21235;-85
2020/12/20 02:16:21;;;;;;;24.90;14.87;;;;;;;4.21;95.57;101235.78;1796483;79;21134;-82
2020/12/20 02:18:51;;;;;;;28.27;14.65;;;;;;;4.20;95.55;101228.06;1729396;79;21125;-84
2020/12/20 02:21:25;;;;;;;27.57;14.90;;;;;;;4.19;95.43;101227.62;1710452;80;21114;-84
2020/12/20 02:34:50;;;;;;;23.67;13.50;;;;;;;4.30;95.70;101226.23;1860283;75;22213;-82
2020/12/20 02:37:19;;;;;;;27.57;14.00;;;;;;;4.27;95.53;101226.55;1806125;78;21093;-83
2020/12/20 02:39:50;;;;;;;23.10;13.87;;;;;;;4.27;95.21;101223.58;1802286;78;21197;-84
2020/12/20 02:42:20;;;;;;;24.80;14.33;;;;;;;4.27;95.24;101226.55;1804976;77;21164;-83
2020/12/20 02:44:51;;;;;;;25.10;13.47;;;;;;;4.26;95.30;101231.23;1808125;77;21283;-84
2020/12/20 02:47:24;;;;;;;26.80;13.97;;;;;;;4.26;95.34;101233.37;1792413;77;21124;-83
2020/12/20 02:49:54;;;;;;;24.30;13.70;;;;;;;4.23;95.15;101229.02;1813081;78;21196;-83
2020/12/20 03:14:06;;;;;;;24.37;12.90;;;;;;;4.04;96.27;101238.25;1845358;75;22284;-84
2020/12/20 03:30:27;;;;;;;30.30;15.40;;;;;;;4.13;96.53;101253.90;1727857;79;21194;-83
2020/12/20 03:33:21;;;;;;;28.93;15.87;;;;;;;4.14;96.34;101255.62;1826326;76;22182;-83
2020/12/20 03:35:51;;;;;;;26.50;13.65;;;;;;;4.07;96.35;101265.64;1806136;78;21259;-82
2020/12/20 03:38:20;;;;;;;28.13;14.60;;;;;;;4.03;96.72;101265.96;1792380;77;21144;-82
2020/12/20 03:40:52;;;;;;;24.30;13.67;;;;;;;4.02;96.86;101270.60;1760174;79;21307;-83
2020/12/20 03:43:20;;;;;;;25.60;13.77;;;;;;;4.04;96.97;101270.67;1797942;78;21113;-84
2020/12/20 03:46:09;;;;;;;26.50;15.20;;;;;;;4.09;97.12;101265.30;1825963;77;22327;-82
2020/12/20 03:48:40;;;;;;;28.83;15.97;;;;;;;4.05;96.83;101275.82;1767995;78;21125;-84
2020/12/20 03:51:10;;;;;;;30.17;15.75;;;;;;;3.98;96.83;101279.02;1766386;78;21117;-84
2020/12/20 03:53:40;;;;;;;30.05;16.05;;;;;;;3.96;97.34;101281.95;1744902;79;21114;-84
2020/12/20 03:56:11;;;;;;;28.05;15.60;;;;;;;3.96;97.65;101280.27;1758464;78;21134;-83
2020/12/20 04:09:30;;;;;;;27.50;14.60;;;;;;;3.86;98.09;101297.43;1797030;78;22201;-84
2020/12/20 04:41:06;;;;;;;31.37;15.17;;;;;;;3.73;100.00;101337.52;1743816;79;22221;-85
2020/12/20 04:54:30;;;;;;;25.47;13.50;;;;;;;3.88;100.00;101335.45;1779172;78;22197;-83
2020/12/20 05:07:55;;;;;;;19.63;11.60;;;;;;;3.83;100.00;101339.56;1872739;76;22140;-84
2020/12/20 05:21:04;;;;;;;26.40;13.40;;;;;;;3.78;100.00;101340.22;1837345;76;22102;-83
2020/12/20 05:23:48;;;;;;;20.83;11.77;;;;;;;3.75;100.00;101335.45;1814971;76;22123;-83
2020/12/20 05:26:31;;;;;;;20.63;11.77;;;;;;;3.69;100.00;101339.49;1744575;80;21140;-83
2020/12/20 05:29:12;;;;;;;24.13;12.70;;;;;;;3.65;100.00;101336.38;1774052;79;21104;-82
2020/12/20 05:31:42;;;;;;;19.80;11.47;;;;;;;3.65;100.00;101341.08;1773801;79;21141;-81
2020/12/20 05:34:14;;;;;;;21.83;11.63;;;;;;;3.69;100.00;101342.91;1756886;81;21131;-83
2020/12/20 05:36:45;;;;;;;;;;;;;;;3.72;100.00;101337.91;1723371;80;21158;-83
2020/12/20 05:39:36;;;;;;;27.00;14.00;;;;;;;3.76;100.00;101345.30;1773876;79;20127;-82
2020/12/20 05:42:27;;;;;;;27.27;12.47;;;;;;;3.84;100.00;101351.53;1809324;77;20210;-83
2020/12/20 05:45:09;;;;;;;21.17;11.70;;;;;;;3.79;100.00;101355.61;1771183;80;21101;-83
2020/12/20 05:47:39;;;;;;;19.57;11.07;;;;;;;3.81;100.00;101355.27;1753516;80;21103;-83
2020/12/20 05:50:13;;;;;;;13.37;8.13;;;;;;;3.84;100.00;101368.59;1717658;83;21101;-83
2020/12/20 05:53:01;;;;;;;17.40;10.00;;;;;;;3.84;100.00;101371.15;1695583;82;21180;-83
2020/12/20 05:55:39;;;;;;;15.57;9.03;;;;;;;3.83;100.00;101363.02;1718097;82;21150;-84
2020/12/20 05:58:12;;;;;;;14.93;8.37;;;;;;;3.83;100.00;101363.88;1721839;80;21284;-82
2020/12/20 06:00:44;;;;;;;16.57;8.00;;;;;;;3.84;100.00;101369.87;1735044;79;21158;-83
2020/12/20 06:03:12;;;;;;;15.30;9.20;;;;;;;3.83;100.00;101366.44;1707850;83;21121;-82
2020/12/20 06:05:44;;;;;;;21.57;10.20;;;;;;;3.83;99.74;101368.14;1718383;82;21164;-83
2020/12/20 06:08:17;;;;;;;22.23;9.83;;;;;;;3.82;99.79;101372.77;1706027;82;21126;-84
2020/12/20 06:10:50;;;;;;;24.00;10.70;;;;;;;3.83;99.60;101375.40;1715430;81;21183;-84
2020/12/20 06:13:23;;;;;;;35.67;11.17;;;;;;;3.82;99.48;101368.94;1750759;82;21132;-83
2020/12/20 06:15:57;;;;;;;25.17;9.93;;;;;;;3.83;99.45;101365.58;1703016;82;21162;-84
2020/12/20 06:18:34;;;;;;;21.93;11.03;;;;;;;3.85;99.27;101376.72;1714735;81;21173;-83
2020/12/20 06:21:03;;;;;;;23.77;10.63;;;;;;;3.83;99.29;101375.40;1730119;81;21251;-83
2020/12/20 06:23:33;;;;;;;24.53;10.87;;;;;;;3.87;99.43;101378.94;1724912;81;21145;-83
2020/12/20 06:26:05;;;;;;;23.47;10.70;;;;;;;3.93;99.22;101386.41;1694455;82;21110;-84
2020/12/20 06:28:41;;;;;;;19.47;10.30;;;;;;;3.98;98.54;101390.39;1722069;80;21158;-84
2020/12/20 06:31:09;;;;;;;22.23;11.00;;;;;;;3.98;98.31;101389.97;1692416;81;21115;-84
2020/12/20 06:33:49;;;;;;;18.77;10.80;;;;;;;3.97;98.14;101392.50;1682094;82;21240;-82
2020/12/20 06:36:20;;;;;;;16.77;9.75;;;;;;;3.96;98.18;101399.31;1708001;81;21111;-83
2020/12/20 06:38:54;;;;;;;21.57;10.73;;;;;;;3.99;98.19;101401.12;1735859;79;21135;-83
2020/12/20 06:41:37;;;;;;;29.57;13.43;;;;;;;3.99;97.92;101404.95;1726062;79;21076;-84
2020/12/20 06:44:14;;;;;;;23.97;12.03;;;;;;;3.98;97.80;101405.75;1702396;82;21103;-82
2020/12/20 06:46:44;;;;;;;32.70;11.83;;;;;;;4.00;97.82;101401.56;1700746;82;21552;-82
2020/12/20 06:49:37;;;;;;;26.00;12.77;;;;;;;4.04;97.82;101402.13;1780761;78;21154;-80
2020/12/20 06:52:23;;;;;;;27.63;13.17;;;;;;;4.12;97.67;101408.39;1815086;77;22150;-82
2020/12/20 06:55:16;;;;;;;20.80;11.27;;;;;;;4.14;97.51;101411.84;1781919;78;21131;-83
2020/12/20 06:58:07;;;;;;;24.90;11.43;;;;;;;4.17;97.11;101407.25;1787433;78;21142;-83
2020/12/20 07:00:55;;;;;;;36.73;13.53;;;;;;;4.17;96.59;101406.83;1779608;77;21153;-83
2020/12/20 07:03:32;;;;;;;35.50;14.03;;;;;;;4.14;96.34;101409.70;1769568;78;21157;-82
2020/12/20 07:06:14;;;;;;;22.63;12.20;;;;;;;4.16;96.28;101406.37;1759189;79;21069;-83
2020/12/20 07:09:06;;;;;;;23.10;12.40;;;;;;;4.18;95.77;101400.02;1748834;78;21125;-82
2020/12/20 07:11:49;;;;;;;25.85;12.80;;;;;;;4.11;95.44;101410.47;1767355;78;21295;-82
2020/12/20 07:14:44;;;;;;;24.90;12.00;;;;;;;4.13;95.52;101408.84;1782175;77;21118;-83
2020/12/20 07:17:25;;;;;;;21.43;11.53;;;;;;;4.15;95.44;101407.20;1694320;82;21193;-84
2020/12/20 07:20:12;;;;;;;24.10;12.43;;;;;;;4.23;95.30;101413.86;1642274;84;21289;-84
2020/12/20 07:22:47;;;;;;;27.87;13.03;;;;;;;4.29;95.05;101411.91;1683611;82;21186;-83
2020/12/20 07:25:18;;;;;;;25.87;13.00;;;;;;;4.34;94.41;101414.20;1665657;84;21391;-83
2020/12/20 07:27:49;;;;;;;26.10;12.27;;;;;;;4.35;94.24;101419.77;1653364;83;21182;-83
2020/12/20 07:30:19;;;;;;;21.63;12.17;;;;;;;4.39;94.13;101422.50;1661393;84;21220;-82
2020/12/20 07:32:48;;;;;;;18.67;11.70;;;;;;;4.46;93.83;101419.73;1655088;86;21218;-83
2020/12/20 07:35:17;;;;;;;21.77;12.53;;;;;;;4.52;93.55;101417.78;1657854;83;21236;-83
2020/12/20 07:37:53;;;;;;;29.40;17.37;;;;;;;4.56;93.12;101415.34;1661416;83;21286;-83
2020/12/20 07:40:22;;;;;;;40.23;23.07;;;;;;;4.60;92.77;101418.88;1669017;84;21123;-82
2020/12/20 07:43:01;;;;;;;33.80;21.70;;;;;;;4.61;92.41;101420.61;1708152;81;21141;-83
2020/12/20 07:45:29;;;;;;;35.20;20.70;;;;;;;4.59;92.28;101423.14;1707190;82;21097;-82
2020/12/20 07:48:01;;;;;;;33.87;19.23;;;;;;;4.55;92.17;101424.28;1698566;84;21129;-83
2020/12/20 07:50:29;;;;;;;32.03;19.63;;;;;;;4.49;92.13;101424.09;1698043;83;21177;-80
2020/12/20 07:53:00;;;;;;;50.30;30.80;;;;;;;4.45;92.19;101427.83;1660690;84;21099;-82
2020/12/20 07:55:34;;;;;;;28.93;18.80;;;;;;;4.43;92.19;101434.58;1646137;85;21188;-82
2020/12/20 07:58:03;;;;;;;33.47;17.50;;;;;;;4.40;92.14;101436.17;1699446;83;21130;-81
2020/12/20 08:00:32;;;;;;;27.00;16.90;;;;;;;4.35;92.16;101430.92;1677625;82;21724;-80
2020/12/20 08:03:06;;;;;;;29.40;18.63;;;;;;;4.34;91.86;101436.84;1682651;84;21270;-80
2020/12/20 08:05:36;;;;;;;29.03;17.93;;;;;;;4.28;92.25;101435.35;1666598;84;21153;-80
2020/12/20 08:08:05;;;;;;;25.23;16.43;;;;;;;4.27;92.32;101436.19;1650865;82;21172;-80
2020/12/20 08:10:35;;;;;;;27.93;15.83;;;;;;;4.27;92.42;101437.88;1683708;84;21141;-80
2020/12/20 08:13:03;;;;;;;23.40;14.43;;;;;;;4.28;92.48;101435.35;1694719;82;21164;-81
2020/12/20 08:15:32;;;;;;;24.17;15.13;;;;;;;4.33;92.37;101432.96;1708497;83;21179;-80
2020/12/20 08:18:01;;;;;;;25.70;16.70;;;;;;;4.37;92.17;101442.06;1684975;84;21155;-79
2020/12/20 08:20:34;;;;;;;28.03;16.20;;;;;;;4.43;92.18;101436.28;1701470;83;21385;-78
2020/12/20 08:23:05;;;;;;;28.03;15.80;;;;;;;4.50;91.98;101441.19;1677958;82;21249;-82
2020/12/20 08:25:37;;;;;;;21.13;14.10;;;;;;;4.55;91.75;101437.09;1657062;84;21134;-84
2020/12/20 08:28:06;;;;;;;24.10;14.50;;;;;;;4.58;91.34;101440.63;1678883;82;21161;-82
2020/12/20 08:30:38;;;;;;;24.83;15.43;;;;;;;4.60;91.43;101441.94;1700449;82;21153;-82
2020/12/20 08:33:08;;;;;;;26.83;15.37;;;;;;;4.64;91.10;101438.65;1736984;80;21166;-79
2020/12/20 08:35:38;;;;;;;24.12;15.45;;;;;;;4.66;90.94;101440.44;1736294;80;21329;-82
2020/12/20 08:38:09;;;;;;;26.57;15.63;;;;;;;4.64;90.14;101445.05;1716287;80;21122;-82
2020/12/20 08:40:38;;;;;;;24.43;15.87;;;;;;;4.58;90.44;101444.47;1673461;83;21292;-82
2020/12/20 08:43:07;;;;;;;23.77;14.77;;;;;;;4.60;90.55;101446.66;1731765;81;21117;-82
2020/12/20 08:45:39;;;;;;;20.02;13.10;;;;;;;4.63;90.62;101444.61;1731961;80;21157;-82
2020/12/20 08:48:08;;;;;;;;;;;;;;;4.68;90.44;101445.22;1706873;82;21486;-82
2020/12/20 08:50:37;;;;;;;21.50;14.63;;;;;;;4.77;90.16;101438.62;1671308;82;20186;-82
2020/12/20 08:53:09;;;;;;;20.83;13.90;;;;;;;4.82;89.66;101442.22;1731212;81;21137;-83
2020/12/20 08:55:43;;;;;;;22.70;14.20;;;;;;;4.86;89.40;101445.33;1731023;80;21191;-83
2020/12/20 08:58:16;;;;;;;21.33;14.40;;;;;;;4.92;89.23;101448.08;1710957;81;21130;-81
2020/12/20 09:00:45;;;;;;;23.27;15.90;;;;;;;4.99;88.83;101444.88;1678800;82;21712;-79
2020/12/20 09:03:18;;;;;;;;;;;;;;;5.02;88.40;101446.67;1720003;81;21174;-81
2020/12/20 09:12:23;;;;;;;24.00;16.13;;;;;;;5.09;87.48;101446.89;1730521;77;21356;-84
2020/12/20 09:15:42;;;;;;;21.50;14.20;;;;;;;5.10;87.06;101452.50;1653252;84;21288;-83
2020/12/20 09:18:32;;;;;;;21.55;14.30;;;;;;;5.00;86.53;101441.48;1659077;84;21130;-83
2020/12/20 09:21:28;;;;;;;22.33;15.47;;;;;;;4.95;86.72;101444.33;1625119;85;21252;-84
2020/12/20 09:27:31;;;;;;;23.90;15.23;;;;;;;4.91;86.30;101442.50;1761984;76;21127;-82
2020/12/20 09:30:02;;;;;;;28.52;15.70;;;;;;;4.81;86.68;101438.78;1797351;78;21124;-83
2020/12/20 09:32:38;;;;;;;22.77;15.30;;;;;;;4.78;86.62;101442.53;1797815;76;21153;-85
2020/12/20 09:36:02;;;;;;;22.60;14.87;;;;;;;4.76;86.70;101443.30;1765636;78;21133;31
2020/12/20 09:45:32;;;;;;;27.60;16.70;;;;;;;4.76;86.67;101439.45;1755890;80;21141;-84
2020/12/20 09:48:32;;;;;;;31.13;18.00;;;;;;;4.68;86.72;101442.66;1716402;80;21180;-85
2020/12/20 09:51:26;;;;;;;29.63;19.47;;;;;;;4.68;87.18;101449.48;1684162;82;21244;-84
2020/12/20 09:54:01;;;;;;;26.43;17.73;;;;;;;4.69;87.07;101443.52;1720261;81;21226;-83
2020/12/20 09:56:33;;;;;;;26.67;16.50;;;;;;;4.70;87.28;101442.69;1701626;82;21174;-84
2020/12/20 10:02:42;;;;;;;43.13;28.03;;;;;;;4.67;86.99;101446.44;1658022;82;21178;-81
2020/12/20 10:05:10;;;;;;;35.33;20.77;;;;;;;4.58;87.41;101440.63;1664098;85;21538;-82
2020/12/20 10:07:41;;;;;;;33.40;20.40;;;;;;;4.55;87.45;101443.50;1685889;83;21175;-83
2020/12/20 10:10:37;;;;;;;31.30;19.03;;;;;;;4.53;87.64;101442.58;1646146;86;21156;-79
2020/12/20 10:13:05;;;;;;;32.90;21.97;;;;;;;4.47;87.88;101441.95;1664429;83;21143;-81
2020/12/20 10:15:34;;;;;;;31.93;19.53;;;;;;;4.44;88.22;101441.85;1666665;85;21323;-81
2020/12/20 10:18:03;;;;;;;33.40;22.07;;;;;;;4.46;88.42;101441.09;1666791;85;21145;-81
2020/12/20 10:20:33;;;;;;;37.97;23.33;;;;;;;4.53;88.42;101439.59;1667964;83;21183;-81
2020/12/20 10:23:03;;;;;;;36.87;22.30;;;;;;;4.57;88.33;101440.56;1694242;84;21249;-81
2020/12/20 10:25:33;;;;;;;33.07;22.83;;;;;;;4.62;88.46;101436.47;1670430;85;21732;-81
2020/12/20 10:28:10;;;;;;;34.43;23.17;;;;;;;4.72;88.42;101432.50;1650497;86;21158;-81
2020/12/20 10:30:40;;;;;;;35.17;23.00;;;;;;;4.75;87.65;101436.03;1687818;80;21296;-80
2020/12/20 10:33:09;;;;;;;24.72;16.37;;;;;;;4.75;87.84;101434.74;1700624;81;21173;-80
2020/12/20 10:35:39;;;;;;;37.13;23.92;;;;;;;4.80;87.67;101429.75;1735016;79;21090;-80
2020/12/20 10:38:32;;;;;;;37.87;23.20;;;;;;;4.82;87.45;101428.11;1740974;80;21090;-80
2020/12/20 10:41:01;;;;;;;41.40;24.93;;;;;;;4.83;87.11;101430.70;1698547;82;21125;-80
2020/12/20 10:43:31;;;;;;;40.53;25.27;;;;;;;4.80;86.95;101431.03;1730701;80;21130;-80
2020/12/20 10:46:01;;;;;;;37.13;26.07;;;;;;;4.76;86.91;101432.63;1765739;78;21495;-80
2020/12/20 10:48:42;;;;;;;38.57;24.17;;;;;;;4.74;86.81;101431.73;1708725;82;21195;-79
2020/12/20 10:51:12;;;;;;;40.50;24.73;;;;;;;4.72;87.01;101429.94;1733333;79;21118;-77
2020/12/20 10:53:41;;;;;;;38.93;25.67;;;;;;;4.74;87.06;101432.12;1756311;79;21157;-79
2020/12/20 10:56:10;;;;;;;40.63;25.37;;;;;;;4.75;87.01;101427.47;1750315;79;21252;-77
2020/12/20 10:58:38;;;;;;;41.77;24.37;;;;;;;4.75;87.07;101436.45;1740640;80;21126;-79
2020/12/20 11:01:09;;;;;;;42.77;25.70;;;;;;;4.70;86.92;101429.45;1739069;79;21118;-78
2020/12/20 11:03:37;;;;;;;38.13;24.20;;;;;;;4.69;86.96;101435.41;1711875;82;21138;-78
2020/12/20 11:06:05;;;;;;;40.30;25.77;;;;;;;4.68;87.08;101434.97;1710016;79;21499;-79
2020/12/20 11:08:34;;;;;;;39.80;25.83;;;;;;;4.68;86.88;101439.23;1721988;80;21157;-78
2020/12/20 11:11:06;;;;;;;34.45;25.20;;;;;;;4.67;87.09;101440.03;1691795;83;21180;-79
2020/12/20 11:13:36;;;;;;;42.08;26.35;;;;;;;4.66;87.09;101443.00;1739231;82;21191;-77
2020/12/20 11:16:05;;;;;;;45.53;26.03;;;;;;;4.69;86.93;101444.80;1744476;79;21288;-80
2020/12/20 11:18:35;;;;;;;37.57;24.67;;;;;;;4.72;86.93;101441.06;1736398;79;21516;-80
2020/12/20 11:21:05;;;;;;;44.70;26.43;;;;;;;4.72;86.91;101442.75;1718735;81;21141;-79
2020/12/20 11:23:37;;;;;;;39.15;26.17;;;;;;;4.71;86.79;101438.05;1750704;79;21266;-80
2020/12/20 11:26:21;;;;;;;39.50;26.43;;;;;;;4.67;86.90;101438.74;1686309;82;21137;-79
2020/12/20 11:29:10;;;;;;;44.57;28.10;;;;;;;4.67;87.12;101438.33;1733173;79;21130;-80
2020/12/20 11:31:39;;;;;;;40.80;25.47;;;;;;;4.68;87.01;101440.09;1723683;79;21142;-79
2020/12/20 11:34:09;;;;;;;41.77;25.15;;;;;;;4.66;86.85;101444.28;1706392;81;21267;-79
2020/12/20 11:36:44;;;;;;;37.93;24.57;;;;;;;4.65;86.73;101445.53;1737051;79;21183;-79
2020/12/20 11:39:35;;;;;;;43.67;27.23;;;;;;;4.61;86.80;101440.73;1725304;82;21108;-80
2020/12/20 11:42:07;;;;;;;;;;;;;;;4.62;86.91;101442.45;1750201;79;21387;-79
2020/12/20 11:44:38;;;;;;;44.37;28.17;;;;;;;4.66;86.65;101441.72;1750860;81;20165;-80
2020/12/20 11:47:13;;;;;;;53.43;35.73;;;;;;;4.68;86.69;101446.50;1733783;80;21109;-80
2020/12/20 11:49:42;;;;;;;44.53;27.70;;;;;;;4.69;86.75;101448.65;1771880;81;21155;-80
2020/12/20 11:52:11;;;;;;;41.50;26.83;;;;;;;4.69;86.74;101449.93;1756578;79;21624;-79
2020/12/20 11:54:42;;;;;;;42.10;25.60;;;;;;;4.70;86.78;101451.25;1745115;81;21119;-80
2020/12/20 11:57:10;;;;;;;35.57;24.30;;;;;;;4.75;86.77;101448.84;1699591;83;21126;-80
2020/12/20 11:59:40;;;;;;;38.63;25.57;;;;;;;4.77;86.62;101450.16;1703903;82;21178;-80
2020/12/20 12:02:08;;;;;;;38.17;24.83;;;;;;;4.80;86.48;101454.97;1693417;82;21142;-79
2020/12/20 12:04:38;;;;;;;44.80;27.03;;;;;;;4.80;86.42;101457.95;1673347;81;21188;-80
2020/12/20 12:07:07;;;;;;;;;;;;;;;4.82;86.26;101454.62;1687733;83;21142;-80
2020/12/20 12:09:38;;;;;;;38.38;25.92;;;;;;;4.78;86.17;101453.20;1688546;82;20171;-80
2020/12/20 12:12:06;;;;;;;39.37;25.63;;;;;;;4.68;86.20;101450.77;1720247;81;21559;-81
2020/12/20 12:14:35;;;;;;;39.93;25.13;;;;;;;4.63;86.34;101449.31;1705423;82;21149;-79
2020/12/20 12:17:07;;;;;;;42.80;26.20;;;;;;;4.63;86.39;101462.12;1660760;84;21138;-80
2020/12/20 12:19:37;;;;;;;42.95;25.72;;;;;;;4.62;86.32;101464.24;1687543;82;21120;-79
2020/12/20 12:22:07;;;;;;;40.78;26.37;;;;;;;4.60;86.21;101466.29;1705442;83;21083;-81
2020/12/20 12:24:37;;;;;;;42.62;25.92;;;;;;;4.56;86.21;101469.17;1694196;81;21127;-80
2020/12/20 12:27:08;;;;;;;40.03;26.02;;;;;;;4.52;86.50;101466.05;1696459;84;21142;-79
2020/12/20 12:29:36;;;;;;;43.33;27.87;;;;;;;4.53;86.72;101469.48;1701617;84;21123;-80
2020/12/20 12:32:05;;;;;;;44.50;28.33;;;;;;;4.56;86.57;101471.73;1669226;85;21099;-79
2020/12/20 12:34:33;;;;;;;41.07;27.57;;;;;;;4.54;86.65;101469.93;1690137;83;21692;-80
2020/12/20 12:37:06;;;;;;;43.30;28.70;;;;;;;4.53;86.54;101470.34;1718561;80;21233;-79
2020/12/20 12:39:38;;;;;;;40.13;27.93;;;;;;;4.51;86.26;101470.69;1700825;82;21166;-79
2020/12/20 12:42:06;;;;;;;30.90;21.20;;;;;;;4.52;86.32;101478.00;1671101;84;21257;-80
2020/12/20 12:44:35;;;;;;;46.40;28.77;;;;;;;4.52;86.28;101483.99;1691753;83;21143;-81
2020/12/20 12:47:04;;;;;;;43.83;29.47;;;;;;;4.52;86.20;101480.56;1728841;82;21579;-78
2020/12/20 12:49:37;;;;;;;47.70;31.23;;;;;;;4.49;86.03;101483.89;1668790;85;21207;-79
2020/12/20 12:52:06;;;;;;;50.33;30.45;;;;;;;4.44;86.10;101481.16;1705849;82;21143;-80
2020/12/20 12:54:35;;;;;;;43.33;29.97;;;;;;;4.40;86.09;101475.89;1677567;83;21241;-80
2020/12/20 12:57:09;;;;;;;46.23;31.20;;;;;;;4.36;86.25;101478.77;1686700;80;21130;-81
2020/12/20 13:42:52;;;;;;;62.43;42.50;;;;;;;4.26;87.00;101497.63;1758472;77;21118;-84
2020/12/20 14:04:34;;;;;;;45.53;29.30;;;;;;;3.97;87.65;101506.02;1770883;77;21418;31
2020/12/20 14:07:02;;;;;;;47.83;30.27;;;;;;;3.94;87.69;101508.47;1730464;80;21230;-79
2020/12/20 14:09:31;;;;;;;42.80;29.07;;;;;;;3.90;87.78;101510.47;1736829;81;21110;-81
2020/12/20 14:12:04;;;;;;;36.73;26.03;;;;;;;3.86;88.05;101511.19;1697942;80;21169;-79
2020/12/20 14:14:32;;;;;;;;;;;;;;;3.86;88.15;101513.74;1698123;83;21554;-78
2020/12/20 14:17:09;;;;;;;45.40;26.70;;;;;;;3.87;88.27;101510.77;1735025;77;20203;-83
2020/12/20 14:20:00;;;;;;;43.87;26.90;;;;;;;3.84;88.38;101517.92;1727633;82;21162;-81
2020/12/20 14:22:30;;;;;;;36.83;23.90;;;;;;;3.85;88.64;101523.91;1732400;82;21111;-79
2020/12/20 14:24:59;;;;;;;36.93;24.30;;;;;;;3.85;88.57;101519.66;1738577;79;21138;-81
2020/12/20 14:27:31;;;;;;;49.03;26.47;;;;;;;3.85;88.56;101526.06;1713655;82;21123;-79
2020/12/20 14:30:03;;;;;;;45.37;25.43;;;;;;;3.87;88.52;101520.59;1709591;83;21094;-80
2020/12/20 14:32:39;;;;;;;39.10;24.13;;;;;;;3.88;88.52;101524.89;1730038;79;21562;-83
2020/12/20 14:35:16;;;;;;;37.90;25.10;;;;;;;3.86;88.09;101525.64;1753059;78;21347;-80
2020/12/20 14:37:48;;;;;;;39.33;25.70;;;;;;;3.82;88.53;101525.08;1734059;79;21094;-80
2020/12/20 14:40:17;;;;;;;42.35;25.88;;;;;;;3.83;88.70;101530.27;1768031;79;21563;-81
2020/12/20 14:42:49;;;;;;;39.40;25.63;;;;;;;3.87;88.73;101527.00;1757406;76;21178;-77
2020/12/20 14:45:18;;;;;;;35.93;23.80;;;;;;;3.91;88.54;101533.97;1780936;78;21109;-77
2020/12/20 14:47:46;;;;;;;40.03;26.57;;;;;;;3.88;88.57;101532.98;1823948;78;21279;-77
2020/12/20 14:50:14;;;;;;;37.00;25.33;;;;;;;3.89;88.58;101534.72;1815812;78;21109;-76
2020/12/20 14:52:45;;;;;;;43.53;28.10;;;;;;;3.85;88.25;101535.02;1823929;78;21112;-76
2020/12/20 14:55:13;;;;;;;;;;;;;;;3.83;88.70;101534.52;1803405;78;21565;-77
2020/12/20 14:57:42;;;;;;;44.93;27.87;;;;;;;3.83;88.71;101535.80;1821027;78;20240;-77
2020/12/20 15:00:10;;;;;;;66.50;27.13;;;;;;;3.82;88.80;101530.20;1818276;78;21101;-77
2020/12/20 15:02:38;;;;;;;38.93;26.07;;;;;;;3.83;88.85;101535.39;1803314;78;21223;-77
2020/12/20 15:05:06;;;;;;;37.00;24.47;;;;;;;3.85;88.92;101539.27;1839846;78;21525;-77
2020/12/20 15:07:34;;;;;;;41.17;25.60;;;;;;;3.84;88.92;101533.70;1777952;80;21113;-76